sensor_id;sensor_type;location;lat;lon;timestamp;P1;durP1;ratioP1;P2;durP2;ratioP2
79076;SDS011;68477;42.698;23.342;2023-09-12T00:02:13;7.90;;;3.45;;
79076;SDS011;68477;42.698;23.342;2023-09-12T00:04:38;5.90;;;3.78;;
79076;SDS011;68477;42.698;23.342;2023-09-12T00:07:03;7.65;;;3.78;;
79076;SDS011;68477;42.698;23.342;2023-09-12T00:09:29;5.63;;;3.78;;
79076;SDS011;68477;42.698;23.342;2023-09-12T00:11:54;10.23;;;5.70;;
79076;SDS011;68477;42.698;23.342;2023-09-12T00:14:20;9.02;;;3.42;;
79076;SDS011;68477;42.698;23.342;2023-09-12T00:16:46;8.13;;;4.13;;
79076;SDS011;68477;42.698;23.342;2023-09-12T00:19:11;6.60;;;3.25;;
79076;SDS011;68477;42.698;23.342;2023-09-12T00:21:37;6.32;;;3.45;;
79076;SDS011;68477;42.698;23.342;2023-09-12T00:24:03;9.30;;;4.10;;
79076;SDS011;68477;42.698;23.342;2023-09-12T00:26:28;7.85;;;3.45;;
79076;SDS011;68477;42.698;23.342;2023-09-12T00:28:55;8.05;;;3.97;;
79076;SDS011;68477;42.698;23.342;2023-09-12T00:31:21;8.65;;;4.35;;
79076;SDS011;68477;42.698;23.342;2023-09-12T00:33:46;9.23;;;4.35;;
79076;SDS011;68477;42.698;23.342;2023-09-12T00:36:12;7.75;;;4.53;;
79076;SDS011;68477;42.698;23.342;2023-09-12T00:38:37;9.85;;;4.88;;
79076;SDS011;68477;42.698;23.342;2023-09-12T00:41:03;7.28;;;4.43;;
79076;SDS011;68477;42.698;23.342;2023-09-12T00:43:28;7.50;;;5.00;;
79076;SDS011;68477;42.698;23.342;2023-09-12T00:45:53;8.10;;;5.00;;
79076;SDS011;68477;42.698;23.342;2023-09-12T00:48:19;12.68;;;5.30;;
79076;SDS011;68477;42.698;23.342;2023-09-12T00:50:47;7.90;;;5.07;;
79076;SDS011;68477;42.698;23.342;2023-09-12T00:53:14;8.68;;;4.38;;
79076;SDS011;68477;42.698;23.342;2023-09-12T00:55:42;9.65;;;4.70;;
79076;SDS011;68477;42.698;23.342;2023-09-12T00:58:12;11.68;;;4.45;;
79076;SDS011;68477;42.698;23.342;2023-09-12T01:00:40;7.05;;;4.50;;
79076;SDS011;68477;42.698;23.342;2023-09-12T01:03:05;7.18;;;4.38;;
79076;SDS011;68477;42.698;23.342;2023-09-12T01:05:32;10.45;;;5.28;;
79076;SDS011;68477;42.698;23.342;2023-09-12T01:07:59;7.57;;;4.65;;
79076;SDS011;68477;42.698;23.342;2023-09-12T01:10:25;9.38;;;5.57;;
79076;SDS011;68477;42.698;23.342;2023-09-12T01:12:50;7.05;;;4.78;;
79076;SDS011;68477;42.698;23.342;2023-09-12T01:15:17;8.88;;;4.78;;
79076;SDS011;68477;42.698;23.342;2023-09-12T01:17:43;8.02;;;5.03;;
79076;SDS011;68477;42.698;23.342;2023-09-12T01:20:19;13.82;;;5.28;;
79076;SDS011;68477;42.698;23.342;2023-09-12T01:28:39;7.35;;;4.35;;
79076;SDS011;68477;42.698;23.342;2023-09-12T01:31:09;8.77;;;4.88;;
79076;SDS011;68477;42.698;23.342;2023-09-12T01:33:35;9.57;;;4.65;;
79076;SDS011;68477;42.698;23.342;2023-09-12T01:36:01;9.18;;;4.63;;
79076;SDS011;68477;42.698;23.342;2023-09-12T01:38:26;7.03;;;4.10;;
79076;SDS011;68477;42.698;23.342;2023-09-12T01:40:53;12.90;;;6.75;;
79076;SDS011;68477;42.698;23.342;2023-09-12T01:43:20;9.82;;;4.57;;
79076;SDS011;68477;42.698;23.342;2023-09-12T01:45:49;10.80;;;4.93;;
79076;SDS011;68477;42.698;23.342;2023-09-12T01:48:19;7.35;;;4.38;;
79076;SDS011;68477;42.698;23.342;2023-09-12T01:50:48;8.10;;;4.55;;
79076;SDS011;68477;42.698;23.342;2023-09-12T01:53:14;8.15;;;4.43;;
79076;SDS011;68477;42.698;23.342;2023-09-12T01:55:44;8.57;;;4.97;;
79076;SDS011;68477;42.698;23.342;2023-09-12T01:58:13;8.10;;;4.65;;
79076;SDS011;68477;42.698;23.342;2023-09-12T02:00:39;10.18;;;4.50;;
79076;SDS011;68477;42.698;23.342;2023-09-12T02:03:05;9.00;;;4.13;;
79076;SDS011;68477;42.698;23.342;2023-09-12T02:05:30;7.22;;;4.25;;
79076;SDS011;68477;42.698;23.342;2023-09-12T02:07:56;5.97;;;3.95;;
79076;SDS011;68477;42.698;23.342;2023-09-12T02:10:22;9.38;;;3.95;;
79076;SDS011;68477;42.698;23.342;2023-09-12T02:12:47;9.68;;;3.75;;
79076;SDS011;68477;42.698;23.342;2023-09-12T02:15:13;7.57;;;4.60;;
79076;SDS011;68477;42.698;23.342;2023-09-12T02:17:39;8.05;;;4.80;;
79076;SDS011;68477;42.698;23.342;2023-09-12T02:20:06;9.48;;;5.10;;
79076;SDS011;68477;42.698;23.342;2023-09-12T02:22:35;9.52;;;4.63;;
79076;SDS011;68477;42.698;23.342;2023-09-12T02:25:01;9.52;;;5.50;;
79076;SDS011;68477;42.698;23.342;2023-09-12T02:27:27;9.25;;;4.78;;
79076;SDS011;68477;42.698;23.342;2023-09-12T02:29:53;8.43;;;4.90;;
79076;SDS011;68477;42.698;23.342;2023-09-12T02:32:18;6.90;;;4.53;;
79076;SDS011;68477;42.698;23.342;2023-09-12T02:34:43;9.60;;;4.95;;
79076;SDS011;68477;42.698;23.342;2023-09-12T02:37:09;6.50;;;4.68;;
79076;SDS011;68477;42.698;23.342;2023-09-12T02:39:35;7.03;;;4.35;;
79076;SDS011;68477;42.698;23.342;2023-09-12T02:42:00;8.48;;;4.43;;
79076;SDS011;68477;42.698;23.342;2023-09-12T02:44:25;8.80;;;4.07;;
79076;SDS011;68477;42.698;23.342;2023-09-12T02:46:51;11.18;;;4.68;;
79076;SDS011;68477;42.698;23.342;2023-09-12T02:49:16;9.20;;;4.75;;
79076;SDS011;68477;42.698;23.342;2023-09-12T02:51:42;11.48;;;5.57;;
79076;SDS011;68477;42.698;23.342;2023-09-12T02:54:07;14.57;;;6.13;;
79076;SDS011;68477;42.698;23.342;2023-09-12T02:56:33;16.48;;;5.00;;
79076;SDS011;68477;42.698;23.342;2023-09-12T02:58:58;10.15;;;5.03;;
79076;SDS011;68477;42.698;23.342;2023-09-12T03:01:24;16.80;;;5.85;;
79076;SDS011;68477;42.698;23.342;2023-09-12T03:03:52;7.57;;;5.47;;
79076;SDS011;68477;42.698;23.342;2023-09-12T03:06:18;14.27;;;4.72;;
79076;SDS011;68477;42.698;23.342;2023-09-12T03:08:44;14.88;;;6.47;;
79076;SDS011;68477;42.698;23.342;2023-09-12T03:11:10;15.32;;;5.55;;
79076;SDS011;68477;42.698;23.342;2023-09-12T03:13:39;10.43;;;5.05;;
79076;SDS011;68477;42.698;23.342;2023-09-12T03:16:12;7.75;;;4.82;;
79076;SDS011;68477;42.698;23.342;2023-09-12T03:18:38;12.45;;;5.68;;
79076;SDS011;68477;42.698;23.342;2023-09-12T03:21:03;14.15;;;5.65;;
79076;SDS011;68477;42.698;23.342;2023-09-12T03:23:29;10.27;;;5.10;;
79076;SDS011;68477;42.698;23.342;2023-09-12T03:25:54;10.73;;;5.53;;
79076;SDS011;68477;42.698;23.342;2023-09-12T03:28:20;12.02;;;6.15;;
79076;SDS011;68477;42.698;23.342;2023-09-12T03:30:45;14.65;;;6.30;;
79076;SDS011;68477;42.698;23.342;2023-09-12T03:33:11;11.00;;;6.35;;
79076;SDS011;68477;42.698;23.342;2023-09-12T03:35:36;14.80;;;6.72;;
79076;SDS011;68477;42.698;23.342;2023-09-12T03:38:02;16.33;;;6.25;;
79076;SDS011;68477;42.698;23.342;2023-09-12T03:40:28;22.30;;;6.72;;
79076;SDS011;68477;42.698;23.342;2023-09-12T03:42:57;10.80;;;5.65;;
79076;SDS011;68477;42.698;23.342;2023-09-12T03:45:23;11.63;;;6.00;;
79076;SDS011;68477;42.698;23.342;2023-09-12T03:47:49;14.95;;;6.70;;
79076;SDS011;68477;42.698;23.342;2023-09-12T03:50:14;13.00;;;5.75;;
79076;SDS011;68477;42.698;23.342;2023-09-12T03:52:39;13.13;;;6.18;;
79076;SDS011;68477;42.698;23.342;2023-09-12T03:55:05;12.25;;;6.07;;
79076;SDS011;68477;42.698;23.342;2023-09-12T03:57:31;11.75;;;6.35;;
79076;SDS011;68477;42.698;23.342;2023-09-12T03:59:56;9.50;;;5.18;;
79076;SDS011;68477;42.698;23.342;2023-09-12T04:02:22;10.02;;;5.72;;
79076;SDS011;68477;42.698;23.342;2023-09-12T04:04:47;11.00;;;5.93;;
79076;SDS011;68477;42.698;23.342;2023-09-12T04:07:13;8.55;;;5.80;;
79076;SDS011;68477;42.698;23.342;2023-09-12T04:09:38;8.82;;;4.70;;
79076;SDS011;68477;42.698;23.342;2023-09-12T04:12:04;10.45;;;5.55;;
79076;SDS011;68477;42.698;23.342;2023-09-12T04:14:31;7.68;;;5.53;;
79076;SDS011;68477;42.698;23.342;2023-09-12T04:16:57;10.20;;;5.72;;
79076;SDS011;68477;42.698;23.342;2023-09-12T04:19:23;11.10;;;5.38;;
79076;SDS011;68477;42.698;23.342;2023-09-12T04:21:48;14.50;;;6.20;;
79076;SDS011;68477;42.698;23.342;2023-09-12T04:24:13;9.98;;;5.68;;
79076;SDS011;68477;42.698;23.342;2023-09-12T04:26:40;15.07;;;6.20;;
79076;SDS011;68477;42.698;23.342;2023-09-12T04:29:06;12.20;;;6.82;;
79076;SDS011;68477;42.698;23.342;2023-09-12T04:31:31;16.58;;;6.68;;
79076;SDS011;68477;42.698;23.342;2023-09-12T04:33:57;14.68;;;6.97;;
79076;SDS011;68477;42.698;23.342;2023-09-12T04:36:22;10.55;;;5.95;;
79076;SDS011;68477;42.698;23.342;2023-09-12T04:38:48;18.08;;;8.10;;
79076;SDS011;68477;42.698;23.342;2023-09-12T04:41:13;18.77;;;7.07;;
79076;SDS011;68477;42.698;23.342;2023-09-12T04:43:42;11.73;;;6.68;;
79076;SDS011;68477;42.698;23.342;2023-09-12T04:46:11;13.77;;;6.50;;
79076;SDS011;68477;42.698;23.342;2023-09-12T04:48:37;12.80;;;6.50;;
79076;SDS011;68477;42.698;23.342;2023-09-12T04:51:04;10.15;;;5.90;;
79076;SDS011;68477;42.698;23.342;2023-09-12T04:53:29;8.35;;;5.57;;
79076;SDS011;68477;42.698;23.342;2023-09-12T04:56:01;13.40;;;5.80;;
79076;SDS011;68477;42.698;23.342;2023-09-12T04:58:27;12.45;;;5.53;;
79076;SDS011;68477;42.698;23.342;2023-09-12T05:00:53;14.18;;;5.70;;
79076;SDS011;68477;42.698;23.342;2023-09-12T05:03:19;10.35;;;5.70;;
79076;SDS011;68477;42.698;23.342;2023-09-12T05:05:46;10.50;;;5.95;;
79076;SDS011;68477;42.698;23.342;2023-09-12T05:08:12;10.13;;;6.47;;
79076;SDS011;68477;42.698;23.342;2023-09-12T05:10:38;15.77;;;5.53;;
79076;SDS011;68477;42.698;23.342;2023-09-12T05:13:04;10.13;;;5.10;;
79076;SDS011;68477;42.698;23.342;2023-09-12T05:15:30;8.75;;;5.70;;
79076;SDS011;68477;42.698;23.342;2023-09-12T05:17:55;12.02;;;4.90;;
79076;SDS011;68477;42.698;23.342;2023-09-12T05:20:21;13.50;;;4.82;;
79076;SDS011;68477;42.698;23.342;2023-09-12T05:22:46;13.60;;;4.93;;
79076;SDS011;68477;42.698;23.342;2023-09-12T05:25:11;7.15;;;4.32;;
79076;SDS011;68477;42.698;23.342;2023-09-12T05:27:37;11.70;;;4.75;;
79076;SDS011;68477;42.698;23.342;2023-09-12T05:30:03;9.10;;;4.38;;
79076;SDS011;68477;42.698;23.342;2023-09-12T05:32:28;15.20;;;4.55;;
79076;SDS011;68477;42.698;23.342;2023-09-12T05:34:54;9.40;;;5.28;;
79076;SDS011;68477;42.698;23.342;2023-09-12T05:37:21;11.90;;;5.25;;
79076;SDS011;68477;42.698;23.342;2023-09-12T05:39:46;12.40;;;4.55;;
79076;SDS011;68477;42.698;23.342;2023-09-12T05:42:12;12.82;;;4.97;;
79076;SDS011;68477;42.698;23.342;2023-09-12T05:44:39;12.63;;;5.10;;
79076;SDS011;68477;42.698;23.342;2023-09-12T05:47:07;9.07;;;4.55;;
79076;SDS011;68477;42.698;23.342;2023-09-12T05:49:33;13.20;;;4.80;;
79076;SDS011;68477;42.698;23.342;2023-09-12T05:51:59;8.23;;;3.92;;
79076;SDS011;68477;42.698;23.342;2023-09-12T05:54:24;11.60;;;5.40;;
79076;SDS011;68477;42.698;23.342;2023-09-12T05:56:50;8.50;;;4.43;;
79076;SDS011;68477;42.698;23.342;2023-09-12T05:59:18;8.70;;;4.43;;
79076;SDS011;68477;42.698;23.342;2023-09-12T06:01:43;12.43;;;4.65;;
79076;SDS011;68477;42.698;23.342;2023-09-12T06:04:09;12.27;;;4.90;;
79076;SDS011;68477;42.698;23.342;2023-09-12T06:06:34;10.65;;;5.20;;
79076;SDS011;68477;42.698;23.342;2023-09-12T06:09:00;8.98;;;4.85;;
79076;SDS011;68477;42.698;23.342;2023-09-12T06:11:25;12.25;;;5.22;;
79076;SDS011;68477;42.698;23.342;2023-09-12T06:13:51;10.82;;;5.07;;
79076;SDS011;68477;42.698;23.342;2023-09-12T06:16:16;18.10;;;5.20;;
79076;SDS011;68477;42.698;23.342;2023-09-12T06:18:42;9.30;;;4.93;;
79076;SDS011;68477;42.698;23.342;2023-09-12T06:21:07;7.03;;;4.50;;
79076;SDS011;68477;42.698;23.342;2023-09-12T06:23:34;13.93;;;4.65;;
79076;SDS011;68477;42.698;23.342;2023-09-12T06:25:59;10.48;;;5.55;;
79076;SDS011;68477;42.698;23.342;2023-09-12T06:28:25;9.02;;;4.70;;
79076;SDS011;68477;42.698;23.342;2023-09-12T06:30:55;7.45;;;4.93;;
79076;SDS011;68477;42.698;23.342;2023-09-12T06:33:22;12.05;;;5.43;;
79076;SDS011;68477;42.698;23.342;2023-09-12T06:35:48;12.80;;;6.28;;
79076;SDS011;68477;42.698;23.342;2023-09-12T06:38:15;14.93;;;5.15;;
79076;SDS011;68477;42.698;23.342;2023-09-12T06:40:42;10.07;;;4.85;;
79076;SDS011;68477;42.698;23.342;2023-09-12T06:43:08;13.20;;;6.45;;
79076;SDS011;68477;42.698;23.342;2023-09-12T06:45:34;16.55;;;5.15;;
79076;SDS011;68477;42.698;23.342;2023-09-12T06:48:01;8.57;;;4.95;;
79076;SDS011;68477;42.698;23.342;2023-09-12T06:50:27;10.20;;;5.47;;
79076;SDS011;68477;42.698;23.342;2023-09-12T06:52:52;12.43;;;5.60;;
79076;SDS011;68477;42.698;23.342;2023-09-12T06:55:18;10.80;;;4.85;;
79076;SDS011;68477;42.698;23.342;2023-09-12T06:57:43;10.20;;;5.00;;
79076;SDS011;68477;42.698;23.342;2023-09-12T07:00:10;9.50;;;5.32;;
79076;SDS011;68477;42.698;23.342;2023-09-12T07:02:36;9.38;;;5.80;;
79076;SDS011;68477;42.698;23.342;2023-09-12T07:05:02;7.68;;;5.15;;
79076;SDS011;68477;42.698;23.342;2023-09-12T07:07:29;11.02;;;6.13;;
79076;SDS011;68477;42.698;23.342;2023-09-12T07:09:54;9.15;;;4.90;;
79076;SDS011;68477;42.698;23.342;2023-09-12T07:12:20;10.73;;;4.75;;
79076;SDS011;68477;42.698;23.342;2023-09-12T07:14:45;11.10;;;5.13;;
79076;SDS011;68477;42.698;23.342;2023-09-12T07:17:10;8.27;;;4.75;;
79076;SDS011;68477;42.698;23.342;2023-09-12T07:19:36;11.18;;;4.88;;
79076;SDS011;68477;42.698;23.342;2023-09-12T07:22:01;7.15;;;4.80;;
79076;SDS011;68477;42.698;23.342;2023-09-12T07:24:28;10.57;;;5.10;;
79076;SDS011;68477;42.698;23.342;2023-09-12T07:26:54;10.45;;;4.97;;
79076;SDS011;68477;42.698;23.342;2023-09-12T07:29:19;11.38;;;5.53;;
79076;SDS011;68477;42.698;23.342;2023-09-12T07:31:45;7.30;;;4.35;;
79076;SDS011;68477;42.698;23.342;2023-09-12T07:34:10;9.25;;;4.55;;
79076;SDS011;68477;42.698;23.342;2023-09-12T07:36:37;10.13;;;5.30;;
79076;SDS011;68477;42.698;23.342;2023-09-12T07:39:03;10.23;;;4.45;;
79076;SDS011;68477;42.698;23.342;2023-09-12T07:41:29;11.57;;;5.47;;
79076;SDS011;68477;42.698;23.342;2023-09-12T07:43:55;10.88;;;4.55;;
79076;SDS011;68477;42.698;23.342;2023-09-12T07:46:21;10.90;;;4.20;;
79076;SDS011;68477;42.698;23.342;2023-09-12T07:48:46;5.85;;;3.97;;
79076;SDS011;68477;42.698;23.342;2023-09-12T07:51:16;9.65;;;4.22;;
79076;SDS011;68477;42.698;23.342;2023-09-12T07:53:43;9.68;;;4.28;;
79076;SDS011;68477;42.698;23.342;2023-09-12T07:56:09;16.77;;;4.60;;
79076;SDS011;68477;42.698;23.342;2023-09-12T07:58:37;10.30;;;4.10;;
79076;SDS011;68477;42.698;23.342;2023-09-12T08:01:06;9.10;;;3.80;;
79076;SDS011;68477;42.698;23.342;2023-09-12T08:03:33;8.15;;;4.35;;
79076;SDS011;68477;42.698;23.342;2023-09-12T08:06:03;10.32;;;4.45;;
79076;SDS011;68477;42.698;23.342;2023-09-12T08:08:29;7.70;;;3.88;;
79076;SDS011;68477;42.698;23.342;2023-09-12T08:10:55;9.25;;;3.47;;
79076;SDS011;68477;42.698;23.342;2023-09-12T08:13:22;13.73;;;4.15;;
79076;SDS011;68477;42.698;23.342;2023-09-12T08:15:47;14.88;;;4.28;;
79076;SDS011;68477;42.698;23.342;2023-09-12T08:18:13;10.18;;;3.97;;
79076;SDS011;68477;42.698;23.342;2023-09-12T08:20:38;8.35;;;3.53;;
79076;SDS011;68477;42.698;23.342;2023-09-12T08:23:05;9.30;;;3.88;;
79076;SDS011;68477;42.698;23.342;2023-09-12T08:25:31;12.35;;;3.33;;
79076;SDS011;68477;42.698;23.342;2023-09-12T08:27:56;7.18;;;3.38;;
79076;SDS011;68477;42.698;23.342;2023-09-12T08:30:21;6.20;;;3.10;;
79076;SDS011;68477;42.698;23.342;2023-09-12T08:32:47;9.30;;;4.33;;
79076;SDS011;68477;42.698;23.342;2023-09-12T08:35:13;5.13;;;2.80;;
79076;SDS011;68477;42.698;23.342;2023-09-12T08:37:41;6.50;;;3.50;;
79076;SDS011;68477;42.698;23.342;2023-09-12T08:40:08;7.70;;;3.10;;
79076;SDS011;68477;42.698;23.342;2023-09-12T08:42:41;7.38;;;3.35;;
79076;SDS011;68477;42.698;23.342;2023-09-12T08:45:11;10.45;;;2.70;;
79076;SDS011;68477;42.698;23.342;2023-09-12T08:47:44;5.15;;;2.72;;
79076;SDS011;68477;42.698;23.342;2023-09-12T08:50:12;6.53;;;3.22;;
79076;SDS011;68477;42.698;23.342;2023-09-12T08:52:42;7.88;;;3.08;;
79076;SDS011;68477;42.698;23.342;2023-09-12T08:55:09;9.07;;;3.38;;
79076;SDS011;68477;42.698;23.342;2023-09-12T08:57:38;9.52;;;3.28;;
79076;SDS011;68477;42.698;23.342;2023-09-12T09:00:06;4.97;;;2.63;;
79076;SDS011;68477;42.698;23.342;2023-09-12T09:02:37;9.05;;;3.45;;
79076;SDS011;68477;42.698;23.342;2023-09-12T09:05:05;10.18;;;3.00;;
79076;SDS011;68477;42.698;23.342;2023-09-12T09:07:35;9.18;;;2.78;;
79076;SDS011;68477;42.698;23.342;2023-09-12T09:10:04;5.63;;;2.67;;
79076;SDS011;68477;42.698;23.342;2023-09-12T09:12:37;6.55;;;2.80;;
79076;SDS011;68477;42.698;23.342;2023-09-12T09:15:20;9.38;;;2.67;;
79076;SDS011;68477;42.698;23.342;2023-09-12T09:17:53;7.55;;;4.65;;
79076;SDS011;68477;42.698;23.342;2023-09-12T09:20:28;5.63;;;2.83;;
79076;SDS011;68477;42.698;23.342;2023-09-12T09:23:05;8.57;;;2.88;;
79076;SDS011;68477;42.698;23.342;2023-09-12T09:25:36;10.55;;;4.13;;
79076;SDS011;68477;42.698;23.342;2023-09-12T09:28:05;6.13;;;2.92;;
79076;SDS011;68477;42.698;23.342;2023-09-12T09:33:07;6.57;;;2.25;;
79076;SDS011;68477;42.698;23.342;2023-09-12T09:35:33;4.70;;;2.50;;
79076;SDS011;68477;42.698;23.342;2023-09-12T09:37:59;6.15;;;2.70;;
79076;SDS011;68477;42.698;23.342;2023-09-12T09:40:24;7.25;;;2.55;;
79076;SDS011;68477;42.698;23.342;2023-09-12T09:42:58;6.97;;;3.30;;
79076;SDS011;68477;42.698;23.342;2023-09-12T09:45:25;5.80;;;2.40;;
79076;SDS011;68477;42.698;23.342;2023-09-12T09:47:50;6.90;;;2.85;;
79076;SDS011;68477;42.698;23.342;2023-09-12T09:50:16;6.65;;;2.90;;
79076;SDS011;68477;42.698;23.342;2023-09-12T09:52:42;10.98;;;6.53;;
79076;SDS011;68477;42.698;23.342;2023-09-12T09:55:19;4.38;;;2.78;;
79076;SDS011;68477;42.698;23.342;2023-09-12T09:57:44;8.10;;;3.05;;
79076;SDS011;68477;42.698;23.342;2023-09-12T10:00:10;8.02;;;3.53;;
79076;SDS011;68477;42.698;23.342;2023-09-12T10:02:39;4.47;;;2.67;;
79076;SDS011;68477;42.698;23.342;2023-09-12T10:05:06;6.15;;;2.72;;
79076;SDS011;68477;42.698;23.342;2023-09-12T10:07:34;6.72;;;4.00;;
79076;SDS011;68477;42.698;23.342;2023-09-12T10:10:05;4.97;;;2.80;;
79076;SDS011;68477;42.698;23.342;2023-09-12T10:12:31;5.07;;;3.53;;
79076;SDS011;68477;42.698;23.342;2023-09-12T10:15:03;4.93;;;2.65;;
79076;SDS011;68477;42.698;23.342;2023-09-12T10:17:31;5.10;;;2.50;;
79076;SDS011;68477;42.698;23.342;2023-09-12T10:20:07;6.45;;;3.13;;
79076;SDS011;68477;42.698;23.342;2023-09-12T10:22:48;6.70;;;2.95;;
79076;SDS011;68477;42.698;23.342;2023-09-12T10:25:20;4.75;;;2.45;;
79076;SDS011;68477;42.698;23.342;2023-09-12T10:27:47;4.50;;;2.70;;
79076;SDS011;68477;42.698;23.342;2023-09-12T10:30:14;6.55;;;2.60;;
79076;SDS011;68477;42.698;23.342;2023-09-12T10:32:40;7.82;;;3.25;;
79076;SDS011;68477;42.698;23.342;2023-09-12T10:35:08;7.70;;;2.97;;
79076;SDS011;68477;42.698;23.342;2023-09-12T10:37:34;3.78;;;2.45;;
79076;SDS011;68477;42.698;23.342;2023-09-12T10:40:00;6.07;;;2.63;;
79076;SDS011;68477;42.698;23.342;2023-09-12T10:42:28;8.00;;;2.85;;
79076;SDS011;68477;42.698;23.342;2023-09-12T10:44:55;5.85;;;2.80;;
79076;SDS011;68477;42.698;23.342;2023-09-12T10:47:22;5.45;;;2.70;;
79076;SDS011;68477;42.698;23.342;2023-09-12T10:49:48;6.95;;;2.72;;
79076;SDS011;68477;42.698;23.342;2023-09-12T10:52:26;7.22;;;2.60;;
79076;SDS011;68477;42.698;23.342;2023-09-12T10:54:53;4.47;;;2.72;;
79076;SDS011;68477;42.698;23.342;2023-09-12T10:57:18;8.75;;;2.90;;
79076;SDS011;68477;42.698;23.342;2023-09-12T11:05:02;4.78;;;2.70;;
79076;SDS011;68477;42.698;23.342;2023-09-12T11:12:39;6.10;;;3.05;;
79076;SDS011;68477;42.698;23.342;2023-09-12T11:15:05;5.18;;;2.53;;
79076;SDS011;68477;42.698;23.342;2023-09-12T11:17:36;8.75;;;3.30;;
79076;SDS011;68477;42.698;23.342;2023-09-12T11:20:14;7.05;;;3.72;;
79076;SDS011;68477;42.698;23.342;2023-09-12T11:22:45;12.60;;;2.88;;
79076;SDS011;68477;42.698;23.342;2023-09-12T11:30:16;7.30;;;2.85;;
79076;SDS011;68477;42.698;23.342;2023-09-12T11:32:48;7.80;;;2.97;;
79076;SDS011;68477;42.698;23.342;2023-09-12T11:37:48;6.50;;;2.90;;
79076;SDS011;68477;42.698;23.342;2023-09-12T11:40:17;7.50;;;2.80;;
79076;SDS011;68477;42.698;23.342;2023-09-12T11:42:47;10.55;;;3.00;;
79076;SDS011;68477;42.698;23.342;2023-09-12T11:45:15;8.60;;;2.83;;
79076;SDS011;68477;42.698;23.342;2023-09-12T11:47:44;6.78;;;2.67;;
79076;SDS011;68477;42.698;23.342;2023-09-12T11:50:29;4.95;;;2.80;;
79076;SDS011;68477;42.698;23.342;2023-09-12T11:53:08;6.93;;;2.78;;
79076;SDS011;68477;42.698;23.342;2023-09-12T11:55:36;4.35;;;2.63;;
79076;SDS011;68477;42.698;23.342;2023-09-12T11:58:07;5.65;;;2.85;;
79076;SDS011;68477;42.698;23.342;2023-09-12T12:00:33;8.63;;;4.30;;
79076;SDS011;68477;42.698;23.342;2023-09-12T12:02:58;8.60;;;3.30;;
79076;SDS011;68477;42.698;23.342;2023-09-12T12:05:24;5.43;;;3.05;;
79076;SDS011;68477;42.698;23.342;2023-09-12T12:07:49;6.82;;;2.60;;
79076;SDS011;68477;42.698;23.342;2023-09-12T12:10:18;7.13;;;2.72;;
79076;SDS011;68477;42.698;23.342;2023-09-12T12:12:44;9.88;;;3.00;;
79076;SDS011;68477;42.698;23.342;2023-09-12T12:15:11;6.00;;;2.78;;
79076;SDS011;68477;42.698;23.342;2023-09-12T12:17:37;6.82;;;3.03;;
79076;SDS011;68477;42.698;23.342;2023-09-12T12:20:06;5.32;;;3.13;;
79076;SDS011;68477;42.698;23.342;2023-09-12T12:22:39;5.85;;;2.75;;
79076;SDS011;68477;42.698;23.342;2023-09-12T12:25:08;6.72;;;2.83;;
79076;SDS011;68477;42.698;23.342;2023-09-12T12:27:36;8.75;;;3.30;;
79076;SDS011;68477;42.698;23.342;2023-09-12T12:30:05;9.05;;;2.85;;
79076;SDS011;68477;42.698;23.342;2023-09-12T12:32:32;4.30;;;2.80;;
79076;SDS011;68477;42.698;23.342;2023-09-12T12:34:57;8.40;;;3.05;;
79076;SDS011;68477;42.698;23.342;2023-09-12T12:37:27;6.82;;;3.00;;
79076;SDS011;68477;42.698;23.342;2023-09-12T12:39:56;7.47;;;2.92;;
79076;SDS011;68477;42.698;23.342;2023-09-12T12:42:21;11.43;;;2.55;;
79076;SDS011;68477;42.698;23.342;2023-09-12T12:44:52;5.03;;;3.08;;
79076;SDS011;68477;42.698;23.342;2023-09-12T12:47:18;7.75;;;2.90;;
79076;SDS011;68477;42.698;23.342;2023-09-12T12:49:46;6.20;;;3.15;;
79076;SDS011;68477;42.698;23.342;2023-09-12T12:52:16;7.90;;;3.22;;
79076;SDS011;68477;42.698;23.342;2023-09-12T12:54:42;7.22;;;3.10;;
79076;SDS011;68477;42.698;23.342;2023-09-12T12:57:08;8.38;;;3.15;;
79076;SDS011;68477;42.698;23.342;2023-09-12T12:59:37;5.65;;;2.90;;
79076;SDS011;68477;42.698;23.342;2023-09-12T13:02:03;7.22;;;3.38;;
79076;SDS011;68477;42.698;23.342;2023-09-12T13:04:34;4.97;;;2.75;;
79076;SDS011;68477;42.698;23.342;2023-09-12T13:07:01;7.75;;;3.00;;
79076;SDS011;68477;42.698;23.342;2023-09-12T13:09:26;9.38;;;4.72;;
79076;SDS011;68477;42.698;23.342;2023-09-12T13:11:52;5.85;;;3.60;;
79076;SDS011;68477;42.698;23.342;2023-09-12T13:14:17;5.60;;;3.13;;
79076;SDS011;68477;42.698;23.342;2023-09-12T13:16:44;6.68;;;3.10;;
79076;SDS011;68477;42.698;23.342;2023-09-12T13:19:10;4.97;;;3.25;;
79076;SDS011;68477;42.698;23.342;2023-09-12T13:21:38;6.80;;;3.30;;
79076;SDS011;68477;42.698;23.342;2023-09-12T13:24:04;7.15;;;3.30;;
79076;SDS011;68477;42.698;23.342;2023-09-12T13:26:29;5.63;;;3.33;;
79076;SDS011;68477;42.698;23.342;2023-09-12T13:28:56;8.05;;;3.28;;
79076;SDS011;68477;42.698;23.342;2023-09-12T13:31:22;5.07;;;2.97;;
79076;SDS011;68477;42.698;23.342;2023-09-12T13:33:48;5.20;;;3.03;;
79076;SDS011;68477;42.698;23.342;2023-09-12T13:36:13;8.90;;;3.95;;
79076;SDS011;68477;42.698;23.342;2023-09-12T13:38:39;11.10;;;3.45;;
79076;SDS011;68477;42.698;23.342;2023-09-12T13:41:05;6.53;;;3.35;;
79076;SDS011;68477;42.698;23.342;2023-09-12T13:43:30;4.88;;;3.03;;
79076;SDS011;68477;42.698;23.342;2023-09-12T13:45:56;4.97;;;2.90;;
79076;SDS011;68477;42.698;23.342;2023-09-12T13:48:22;10.35;;;4.07;;
79076;SDS011;68477;42.698;23.342;2023-09-12T13:50:47;8.30;;;3.10;;
79076;SDS011;68477;42.698;23.342;2023-09-12T13:53:12;14.38;;;3.15;;
79076;SDS011;68477;42.698;23.342;2023-09-12T13:55:39;8.95;;;3.60;;
79076;SDS011;68477;42.698;23.342;2023-09-12T13:58:05;9.75;;;3.13;;
79076;SDS011;68477;42.698;23.342;2023-09-12T14:00:32;9.90;;;3.20;;
79076;SDS011;68477;42.698;23.342;2023-09-12T14:02:58;8.25;;;3.00;;
79076;SDS011;68477;42.698;23.342;2023-09-12T14:05:24;9.88;;;2.95;;
79076;SDS011;68477;42.698;23.342;2023-09-12T14:07:50;8.85;;;3.10;;
79076;SDS011;68477;42.698;23.342;2023-09-12T14:10:16;7.57;;;3.35;;
79076;SDS011;68477;42.698;23.342;2023-09-12T14:12:42;7.07;;;3.17;;
79076;SDS011;68477;42.698;23.342;2023-09-12T14:15:09;9.70;;;3.63;;
79076;SDS011;68477;42.698;23.342;2023-09-12T14:17:35;8.25;;;3.28;;
79076;SDS011;68477;42.698;23.342;2023-09-12T14:20:00;7.72;;;3.40;;
79076;SDS011;68477;42.698;23.342;2023-09-12T14:22:26;7.57;;;2.90;;
79076;SDS011;68477;42.698;23.342;2023-09-12T14:24:51;4.72;;;3.00;;
79076;SDS011;68477;42.698;23.342;2023-09-12T14:27:17;7.03;;;3.00;;
79076;SDS011;68477;42.698;23.342;2023-09-12T14:29:42;9.70;;;3.60;;
79076;SDS011;68477;42.698;23.342;2023-09-12T14:32:11;7.25;;;3.47;;
79076;SDS011;68477;42.698;23.342;2023-09-12T14:34:37;9.23;;;3.10;;
79076;SDS011;68477;42.698;23.342;2023-09-12T14:37:02;7.90;;;3.03;;
79076;SDS011;68477;42.698;23.342;2023-09-12T14:39:27;9.38;;;2.80;;
79076;SDS011;68477;42.698;23.342;2023-09-12T14:41:53;5.32;;;2.90;;
79076;SDS011;68477;42.698;23.342;2023-09-12T14:44:19;11.23;;;2.90;;
79076;SDS011;68477;42.698;23.342;2023-09-12T14:46:49;7.93;;;3.17;;
79076;SDS011;68477;42.698;23.342;2023-09-12T14:49:14;6.13;;;3.15;;
79076;SDS011;68477;42.698;23.342;2023-09-12T14:51:40;4.68;;;2.63;;
79076;SDS011;68477;42.698;23.342;2023-09-12T14:54:06;6.38;;;2.63;;
79076;SDS011;68477;42.698;23.342;2023-09-12T14:56:32;6.00;;;2.95;;